Saint George Island, AK

1:49 PM HADT on October 25, 2014 (GMT -0900)
Saint George | Change Station
CLOSE
Current Station
Airport
Location: St. George,
Elevation: 125 ft
Nearby Weather Stations

Elev 125 ft 56.58 °N, 169.66 °W | Updated 13 minutes ago

Overcast
Overcast
43 °F
Feels Like 38 °F
N
9
Wind Variable Wind from West

Today
High -- | Low -- °F
--% Chance of Precip.
Yesterday
High -- | Low -- °F
Precip. -- in
9:13 AM 6:51 PM
Waxing Crescent, 4% visible
Pressure 29.87 in
Visibility 8.0 miles
Clouds Scattered Clouds 1100 ft
Mostly Cloudy 2000 ft
Overcast 2600 ft
Windchill 38 °F
Dew Point 41 °F
Humidity 93%
Rainfall 0.00 in
Snow Depth Not available.
UV 0 out of 12
Pollen Not available.
Air Quality Not available.
Flu Activity Local Activity
SPECI PAPB 252236Z AUTO 27008KT 8SM SCT011 BKN020 OVC026 06/05 A2987 RMK AO2 T00610050 TSNO

More Conditions Fewer Conditions

Pressure 29.87 in
Visibility 8.0 miles
Clouds Scattered Clouds 1100 ft
Mostly Cloudy 2000 ft
Overcast 2600 ft
Windchill 38 °F
Dew Point 41 °F
Humidity 93%
Rainfall 0.00 in
Snow Depth Not available.
UV 0 out of 12
Pollen Not available.
Air Quality Not available.
Flu Activity Local Activity
SPECI PAPB 252236Z AUTO 27008KT 8SM SCT011 BKN020 OVC026 06/05 A2987 RMK AO2 T00610050 TSNO

More Conditions Fewer Conditions

10-Day Weather Forecast

Almanac

Astronomy

Oct. 25, 2014 Rise Set
Actual Time 9:13 AM HADT 6:51 PM HADT
Civil Twilight 8:33 AM HADT 7:30 PM HADT
Nautical Twilight 7:49 AM HADT 8:14 PM HADT
Astronomical Twilight 7:05 AM HADT 8:58 PM HADT
Moon 11:22 AM HADT 8:05 PM HADT
Length of Visible Light 10h 57m
Length of Day
9h 38m
Tomorrow will be 4m 32s shorter.
Waxing Crescent, 4% of the Moon is Illuminated
Today
Waxing Crescent
Oct 30
First Quarter
Nov 6
Full
Nov 14
Last Quarter
Nov 22
New

Today's Extremes

State Highs State Lows

Community

WunderPhotos

Upload Photos

1,765,016 photos uploaded!

Nearby

Snow Depth

Station Depth Elevation
Rocky Point 4 in 500 ft
Mcneil Canyon 1 in 1320 ft
MF Bradley River 0 in 2300 ft
Cooper Lake 0 in 1200 ft
Point Mackenzie 1 in 200 ft

Earthquake Activity

City Distance Mag. Time & Date
No recent earthquake activity has been reported nearby.
Minimum magnitude displayed is 2.5.

Coastal Water Temperatures

Place Temperature
No Stations Reporting

Nearby Weather Stations